Time;durP1;ratioP1;P1;durP2;ratioP2;P2;SDS_P1;SDS_P2;PMS_P1;PMS_P2;Temp;Humidity;BMP_temperature;BMP_pressure;BME280_temperature;BME280_humidity;BME280_pressure;Samples;Min_cycle;Max_cycle;Signal;HPM_P1;HPM_P2
2022/03/30 00:00:40;;;;;;;19.27;4.65;;;;;;;;;;5035466;28;20030;-65
2022/03/30 00:03:06;;;;;;;12.48;3.65;;;;;;;;;;5035936;28;20030;-69
2022/03/30 00:05:32;;;;;;;10.13;3.72;;;;;;;;;;5035734;28;20083;-68
2022/03/30 00:07:58;;;;;;;14.68;4.07;;;;;;;;;;5035869;28;20361;-75
2022/03/30 00:10:24;;;;;;;12.25;4.07;;;;;;;;;;5035867;28;20057;-69
2022/03/30 00:12:51;;;;;;;9.95;3.70;;;;;;;;;;5018014;28;20048;-74
2022/03/30 00:15:17;;;;;;;12.55;3.80;;;;;;;;;;5035932;28;20021;-72
2022/03/30 00:17:43;;;;;;;21.52;4.38;;;;;;;;;;5035456;28;20050;-69
2022/03/30 00:20:10;;;;;;;10.25;4.13;;;;;;;;;;5035539;28;20203;-73
2022/03/30 00:22:38;;;;;;;16.00;4.05;;;;;;;;;;5017702;28;20026;-67
2022/03/30 00:25:05;;;;;;;10.10;3.70;;;;;;;;;;5034851;28;20030;-71
2022/03/30 00:27:31;;;;;;;11.65;3.95;;;;;;;;;;5035273;28;20033;-67
2022/03/30 00:29:57;;;;;;;11.98;4.20;;;;;;;;;;5035069;28;20069;-69
2022/03/30 00:32:23;;;;;;;5.90;3.47;;;;;;;;;;5017195;28;20044;-67
2022/03/30 00:34:49;;;;;;;10.88;3.53;;;;;;;;;;5017948;28;20153;-70
2022/03/30 00:37:15;;;;;;;9.57;3.38;;;;;;;;;;5035382;28;20105;-69
2022/03/30 00:39:42;;;;;;;9.75;3.40;;;;;;;;;;5035266;28;20079;-72
2022/03/30 00:42:15;;;;;;;18.58;3.58;;;;;;;;;;5035184;28;20017;-69
2022/03/30 00:44:41;;;;;;;10.50;3.60;;;;;;;;;;5034846;28;20025;-69
2022/03/30 00:47:23;;;;;;;11.63;3.47;;;;;;;;;;5034964;28;20028;-71
2022/03/30 00:49:49;;;;;;;6.65;3.70;;;;;;;;;;5017194;28;20112;-70
2022/03/30 00:52:16;;;;;;;5.43;3.22;;;;;;;;;;5034560;28;20041;-68
2022/03/30 00:54:43;;;;;;;9.10;3.65;;;;;;;;;;5032962;28;20400;-75
2022/03/30 00:57:10;;;;;;;9.45;3.67;;;;;;;;;;5028854;28;20135;-71
2022/03/30 00:59:36;;;;;;;8.13;3.67;;;;;;;;;;5034625;28;20087;-72
2022/03/30 01:02:02;;;;;;;14.73;3.55;;;;;;;;;;5034640;28;20030;-71
2022/03/30 01:04:29;;;;;;;6.75;3.00;;;;;;;;;;5016605;28;20037;-73
2022/03/30 01:06:55;;;;;;;6.30;3.65;;;;;;;;;;5033724;28;20029;-73
2022/03/30 01:09:21;;;;;;;6.95;3.03;;;;;;;;;;5016945;28;20029;-72
2022/03/30 01:11:47;;;;;;;9.43;3.45;;;;;;;;;;5016648;28;20076;-73
2022/03/30 01:14:14;;;;;;;11.07;3.75;;;;;;;;;;5034272;28;20072;-71
2022/03/30 01:16:41;;;;;;;6.50;3.30;;;;;;;;;;5033735;28;20472;-71
2022/03/30 01:19:08;;;;;;;5.10;3.13;;;;;;;;;;5034610;28;20029;-72
2022/03/30 01:21:38;;;;;;;9.18;3.58;;;;;;;;;;5034598;28;20117;-70
2022/03/30 01:24:05;;;;;;;10.02;3.35;;;;;;;;;;5037135;28;20021;-74
2022/03/30 01:26:31;;;;;;;6.68;3.10;;;;;;;;;;5054485;28;20025;-67
2022/03/30 01:28:57;;;;;;;7.35;3.10;;;;;;;;;;5042614;28;20036;-68
2022/03/30 01:34:08;;;;;;;9.45;3.15;;;;;;;;;;5034374;28;20088;-71
2022/03/30 01:36:37;;;;;;;9.85;3.00;;;;;;;;;;5034362;28;20024;-70
2022/03/30 01:39:04;;;;;;;6.55;2.97;;;;;;;;;;5034278;28;20025;-67
2022/03/30 01:41:30;;;;;;;11.63;3.28;;;;;;;;;;5016366;28;20026;-71
2022/03/30 01:43:56;;;;;;;6.88;3.28;;;;;;;;;;5023282;28;20033;-72
2022/03/30 01:46:23;;;;;;;5.30;3.00;;;;;;;;;;5034245;28;20082;-70
2022/03/30 01:48:49;;;;;;;12.02;3.38;;;;;;;;;;5033903;28;20034;-69
2022/03/30 01:51:15;;;;;;;7.55;3.30;;;;;;;;;;5016159;28;20120;-71
2022/03/30 01:53:42;;;;;;;5.18;2.80;;;;;;;;;;5033823;28;20033;-72
2022/03/30 01:56:08;;;;;;;6.13;2.83;;;;;;;;;;5033659;28;20026;-66
2022/03/30 01:58:34;;;;;;;8.07;3.08;;;;;;;;;;5033592;28;20472;-72
2022/03/30 02:01:03;;;;;;;5.43;2.88;;;;;;;;;;5033838;28;20117;-68
2022/03/30 02:03:30;;;;;;;5.93;2.70;;;;;;;;;;5015865;28;20025;-71
2022/03/30 02:05:57;;;;;;;7.05;3.50;;;;;;;;;;5015785;28;20033;-71
2022/03/30 02:08:23;;;;;;;8.35;3.05;;;;;;;;;;5016084;28;20022;-72
2022/03/30 02:10:49;;;;;;;5.30;3.00;;;;;;;;;;5015777;28;20036;-71
2022/03/30 02:13:15;;;;;;;8.57;3.22;;;;;;;;;;5015593;28;20536;-71
2022/03/30 02:15:41;;;;;;;8.40;2.88;;;;;;;;;;5032429;28;20044;-69
2022/03/30 02:18:07;;;;;;;9.02;2.90;;;;;;;;;;5031886;28;20488;-72
2022/03/30 02:20:34;;;;;;;4.97;2.78;;;;;;;;;;5032501;28;20140;-67
2022/03/30 02:23:00;;;;;;;5.40;2.92;;;;;;;;;;5032965;28;20029;-69
2022/03/30 02:25:26;;;;;;;6.57;2.80;;;;;;;;;;5033156;28;20037;-71
2022/03/30 02:27:52;;;;;;;5.90;2.67;;;;;;;;;;5032956;28;20079;-71
2022/03/30 02:30:19;;;;;;;5.03;2.95;;;;;;;;;;5032596;28;20049;-72
2022/03/30 02:32:45;;;;;;;6.07;2.90;;;;;;;;;;5013026;28;20030;-70
2022/03/30 02:35:12;;;;;;;6.45;2.80;;;;;;;;;;5013068;28;20389;-68
2022/03/30 02:37:38;;;;;;;6.53;2.95;;;;;;;;;;5013094;28;20026;-69
2022/03/30 02:40:04;;;;;;;12.15;2.90;;;;;;;;;;4995302;28;20037;-68
2022/03/30 02:42:30;;;;;;;9.48;3.15;;;;;;;;;;5012453;28;20674;-68
2022/03/30 02:44:56;;;;;;;7.80;2.65;;;;;;;;;;5012735;28;20022;-66
2022/03/30 02:48:17;;;;;;;6.82;2.55;;;;;;;;;;5000618;28;20111;-69
2022/03/30 02:50:08;;;;;;;11.93;3.05;;;;;;;;;;5017892;28;20033;-67
2022/03/30 02:52:35;;;;;;;5.35;2.83;;;;;;;;;;5032008;28;20068;-70
2022/03/30 02:55:00;;;;;;;11.73;2.83;;;;;;;;;;5031993;28;20029;-70
2022/03/30 02:57:26;;;;;;;10.32;2.85;;;;;;;;;;5014277;28;20083;-67
2022/03/30 02:59:52;;;;;;;13.10;2.92;;;;;;;;;;5032202;28;20388;-70
2022/03/30 03:02:18;;;;;;;10.95;2.88;;;;;;;;;;5031748;28;20082;-66
2022/03/30 03:04:44;;;;;;;10.77;2.85;;;;;;;;;;5031093;28;20037;-71
2022/03/30 03:07:10;;;;;;;7.05;2.75;;;;;;;;;;5031916;28;20022;-71
2022/03/30 03:09:36;;;;;;;6.20;2.83;;;;;;;;;;5032411;28;20025;-73
2022/03/30 03:12:06;;;;;;;11.38;3.28;;;;;;;;;;5032472;28;20021;-72
2022/03/30 03:14:32;;;;;;;5.53;2.58;;;;;;;;;;5032453;28;20028;-71
2022/03/30 03:16:58;;;;;;;6.60;2.60;;;;;;;;;;5014287;28;20042;-72
2022/03/30 03:19:24;;;;;;;5.40;2.78;;;;;;;;;;5032026;28;20025;-67
2022/03/30 03:21:50;;;;;;;5.90;3.13;;;;;;;;;;5031625;28;20117;-70
2022/03/30 03:24:16;;;;;;;4.85;2.63;;;;;;;;;;5031772;28;20503;-67
2022/03/30 03:26:42;;;;;;;8.80;3.17;;;;;;;;;;5031692;28;20025;-68
2022/03/30 03:29:08;;;;;;;9.90;2.88;;;;;;;;;;5031630;28;20026;-66
2022/03/30 03:31:34;;;;;;;8.38;2.97;;;;;;;;;;5030428;28;20033;-68
2022/03/30 03:34:00;;;;;;;5.22;2.72;;;;;;;;;;5031466;28;20108;-72
2022/03/30 03:36:26;;;;;;;12.30;2.97;;;;;;;;;;5031694;28;20037;-69
2022/03/30 03:38:52;;;;;;;9.07;2.83;;;;;;;;;;5031764;28;20029;-69
2022/03/30 03:41:19;;;;;;;9.15;3.17;;;;;;;;;;5031631;28;20164;-68
2022/03/30 03:43:45;;;;;;;11.57;3.45;;;;;;;;;;5031480;28;20025;-70
2022/03/30 03:46:11;;;;;;;11.32;3.95;;;;;;;;;;5031318;28;20129;-68
2022/03/30 03:48:37;;;;;;;6.57;2.67;;;;;;;;;;5030722;28;20033;-72
2022/03/30 03:51:03;;;;;;;7.93;2.58;;;;;;;;;;5031415;28;20031;-69
2022/03/30 03:53:29;;;;;;;5.57;2.60;;;;;;;;;;5031456;28;20509;-72
2022/03/30 03:55:55;;;;;;;5.95;3.15;;;;;;;;;;5031540;28;20645;-66
2022/03/30 03:58:21;;;;;;;9.25;3.17;;;;;;;;;;5031210;28;20033;-71
2022/03/30 04:00:48;;;;;;;11.07;2.95;;;;;;;;;;5031458;28;20076;-69
2022/03/30 04:03:14;;;;;;;5.93;2.97;;;;;;;;;;5013978;28;20409;-66
2022/03/30 04:05:40;;;;;;;6.68;2.83;;;;;;;;;;5031360;28;20060;-66
2022/03/30 04:08:07;;;;;;;10.07;2.55;;;;;;;;;;5013836;28;20025;-67
2022/03/30 04:10:33;;;;;;;7.55;3.50;;;;;;;;;;5031464;28;20018;-72
2022/03/30 04:12:59;;;;;;;6.28;2.95;;;;;;;;;;5031570;28;20034;-73
2022/03/30 04:15:25;;;;;;;6.85;2.58;;;;;;;;;;5031238;28;20389;-73
2022/03/30 04:17:54;;;;;;;7.05;3.05;;;;;;;;;;5013110;28;20491;-68
2022/03/30 04:20:20;;;;;;;6.70;2.83;;;;;;;;;;5030096;28;20120;-66
2022/03/30 04:22:47;;;;;;;10.43;3.42;;;;;;;;;;5029845;28;20098;-70
2022/03/30 04:25:13;;;;;;;7.35;3.40;;;;;;;;;;5031239;28;20021;-71
2022/03/30 04:27:46;;;;;;;8.73;3.50;;;;;;;;;;5031604;28;20361;-68
2022/03/30 04:30:13;;;;;;;5.30;2.90;;;;;;;;;;5030939;28;20080;-71
2022/03/30 04:32:39;;;;;;;7.55;2.92;;;;;;;;;;5013153;28;20461;-71
2022/03/30 04:35:05;;;;;;;4.85;2.80;;;;;;;;;;5031473;28;20401;-71
2022/03/30 04:37:31;;;;;;;7.57;3.03;;;;;;;;;;5013029;28;20026;-67
2022/03/30 04:39:57;;;;;;;7.00;2.83;;;;;;;;;;5030471;28;20028;-71
2022/03/30 04:42:23;;;;;;;5.55;2.80;;;;;;;;;;5032604;28;20034;-76
2022/03/30 04:44:49;;;;;;;4.32;2.50;;;;;;;;;;5034453;28;20061;-68
2022/03/30 04:47:15;;;;;;;7.68;3.00;;;;;;;;;;5033989;28;20114;-70
2022/03/30 04:49:41;;;;;;;5.38;2.80;;;;;;;;;;5034341;28;20048;-68
2022/03/30 04:52:08;;;;;;;4.07;2.38;;;;;;;;;;5032810;28;20130;-68
2022/03/30 04:54:34;;;;;;;8.15;3.00;;;;;;;;;;5042378;28;20021;-67
2022/03/30 04:57:00;;;;;;;9.48;3.08;;;;;;;;;;5038491;28;20369;-68
2022/03/30 04:59:26;;;;;;;7.68;3.65;;;;;;;;;;5015669;28;20469;-68
2022/03/30 05:01:52;;;;;;;7.43;3.40;;;;;;;;;;5033903;28;20102;-68
2022/03/30 05:04:18;;;;;;;6.82;2.97;;;;;;;;;;5026166;28;20054;-68
2022/03/30 05:06:44;;;;;;;9.23;3.28;;;;;;;;;;5024002;28;20041;-68
2022/03/30 05:09:11;;;;;;;9.13;3.10;;;;;;;;;;5033551;28;20128;-68
2022/03/30 05:11:39;;;;;;;20.45;3.80;;;;;;;;;;5033656;28;20108;-70
2022/03/30 05:14:05;;;;;;;9.05;3.72;;;;;;;;;;5033597;28;20507;-70
2022/03/30 05:16:31;;;;;;;11.30;3.15;;;;;;;;;;5033522;28;20530;-71
2022/03/30 05:18:57;;;;;;;8.52;3.80;;;;;;;;;;5033542;28;20050;-66
2022/03/30 05:21:23;;;;;;;12.30;3.60;;;;;;;;;;5033257;28;20048;-74
2022/03/30 05:23:49;;;;;;;9.57;3.67;;;;;;;;;;5034237;28;20450;-72
2022/03/30 05:26:15;;;;;;;11.05;4.20;;;;;;;;;;5034429;28;20108;-70
2022/03/30 05:28:42;;;;;;;27.48;4.97;;;;;;;;;;5033763;28;20100;-70
2022/03/30 05:31:08;;;;;;;70.70;7.28;;;;;;;;;;5033634;28;20025;-70
2022/03/30 05:33:34;;;;;;;53.70;6.30;;;;;;;;;;5034646;28;20092;-74
2022/03/30 05:36:00;;;;;;;55.58;5.97;;;;;;;;;;5029984;28;20080;-76
2022/03/30 05:38:26;;;;;;;44.70;6.22;;;;;;;;;;5014493;28;20727;-72
2022/03/30 05:40:52;;;;;;;48.53;5.90;;;;;;;;;;5014668;28;20025;-74
2022/03/30 05:43:18;;;;;;;39.83;5.50;;;;;;;;;;5015121;28;20485;-68
2022/03/30 05:45:44;;;;;;;29.55;5.22;;;;;;;;;;5014687;28;20018;-69
2022/03/30 05:48:11;;;;;;;45.83;5.18;;;;;;;;;;5014960;28;20140;-74
2022/03/30 05:50:39;;;;;;;36.20;5.00;;;;;;;;;;5014874;28;20045;-75
2022/03/30 05:53:05;;;;;;;31.08;5.30;;;;;;;;;;5014335;28;20034;-74
2022/03/30 05:55:31;;;;;;;30.80;5.28;;;;;;;;;;5014475;28;20176;-82
2022/03/30 05:57:57;;;;;;;23.88;5.65;;;;;;;;;;5013924;28;20049;-75
2022/03/30 06:00:23;;;;;;;16.98;4.88;;;;;;;;;;5014388;28;20026;-71
2022/03/30 06:02:49;;;;;;;27.75;6.03;;;;;;;;;;5014318;28;20036;-76
2022/03/30 06:05:15;;;;;;;18.48;5.97;;;;;;;;;;5013876;28;20361;-75
2022/03/30 06:07:41;;;;;;;17.70;5.13;;;;;;;;;;5013687;28;20030;-66
2022/03/30 06:10:08;;;;;;;19.13;6.03;;;;;;;;;;5013391;28;20037;-71
2022/03/30 06:12:34;;;;;;;15.50;6.00;;;;;;;;;;5013703;28;20161;-68
2022/03/30 06:15:00;;;;;;;24.48;5.85;;;;;;;;;;5013759;28;20036;-73
2022/03/30 06:17:27;;;;;;;13.18;5.63;;;;;;;;;;5013388;28;20088;-73
2022/03/30 06:19:54;;;;;;;13.93;5.60;;;;;;;;;;5013632;28;20618;-72
2022/03/30 06:22:20;;;;;;;26.65;6.30;;;;;;;;;;5014059;28;20057;-75
2022/03/30 06:24:47;;;;;;;13.95;6.18;;;;;;;;;;5033351;28;20041;-75
2022/03/30 06:27:13;;;;;;;16.60;5.75;;;;;;;;;;5033550;28;20053;-70
2022/03/30 06:29:41;;;;;;;14.65;6.00;;;;;;;;;;5033123;28;20033;-73
2022/03/30 06:32:08;;;;;;;11.57;5.68;;;;;;;;;;5033154;28;20104;-70
2022/03/30 06:34:34;;;;;;;22.33;5.50;;;;;;;;;;5033266;28;20042;-73
2022/03/30 06:37:00;;;;;;;14.93;6.20;;;;;;;;;;5033267;28;20021;-74
2022/03/30 06:39:26;;;;;;;16.15;6.35;;;;;;;;;;5033380;28;20350;-68
2022/03/30 06:41:52;;;;;;;12.52;5.50;;;;;;;;;;5033477;28;20091;-69
2022/03/30 06:44:18;;;;;;;20.88;5.05;;;;;;;;;;5033706;28;20032;-75
2022/03/30 06:46:44;;;;;;;12.23;5.53;;;;;;;;;;5033465;28;20033;-73
2022/03/30 06:49:10;;;;;;;11.07;5.28;;;;;;;;;;5032789;28;20030;-72
2022/03/30 06:51:37;;;;;;;15.48;5.20;;;;;;;;;;5032647;28;20025;-75
2022/03/30 06:54:03;;;;;;;19.17;5.18;;;;;;;;;;5010890;28;20588;-71
2022/03/30 06:56:29;;;;;;;12.25;4.93;;;;;;;;;;5031771;28;20105;-76
2022/03/30 06:58:55;;;;;;;10.43;5.82;;;;;;;;;;5033275;28;20029;-74
2022/03/30 07:01:21;;;;;;;15.18;5.65;;;;;;;;;;5014904;28;20025;-69
2022/03/30 07:03:47;;;;;;;11.13;5.45;;;;;;;;;;5015189;28;20465;-72
2022/03/30 07:06:13;;;;;;;12.85;5.22;;;;;;;;;;5031890;28;20021;-71
2022/03/30 07:11:24;;;;;;;15.50;5.80;;;;;;;;;;5033125;28;20082;-71
2022/03/30 07:13:51;;;;;;;14.00;6.13;;;;;;;;;;5032491;28;20342;-72
2022/03/30 07:16:18;;;;;;;12.52;5.30;;;;;;;;;;5032556;28;20388;-71
2022/03/30 07:18:44;;;;;;;14.52;5.78;;;;;;;;;;5014856;28;20477;-72
2022/03/30 07:21:10;;;;;;;11.57;5.60;;;;;;;;;;5032326;28;20025;-67
2022/03/30 07:23:36;;;;;;;14.05;5.13;;;;;;;;;;5032339;28;20037;-72
2022/03/30 07:26:04;;;;;;;14.02;5.68;;;;;;;;;;5032297;28;20029;-72
2022/03/30 07:28:30;;;;;;;13.73;6.00;;;;;;;;;;5015054;28;20163;-71
2022/03/30 07:30:56;;;;;;;8.98;5.47;;;;;;;;;;5032255;28;20017;-73
2022/03/30 07:33:23;;;;;;;13.40;5.80;;;;;;;;;;5014689;28;20052;-71
2022/03/30 07:35:49;;;;;;;9.60;5.72;;;;;;;;;;5033023;28;20030;-73
2022/03/30 07:38:19;;;;;;;16.15;6.18;;;;;;;;;;5032984;28;20111;-69
2022/03/30 07:40:46;;;;;;;18.17;5.90;;;;;;;;;;5032286;28;20032;-69
2022/03/30 07:43:12;;;;;;;12.63;6.35;;;;;;;;;;5032199;28;20030;-70
2022/03/30 07:45:39;;;;;;;12.07;6.40;;;;;;;;;;5032070;28;20068;-72
2022/03/30 07:48:06;;;;;;;13.52;6.82;;;;;;;;;;5032075;28;20064;-73
2022/03/30 07:50:32;;;;;;;14.38;7.20;;;;;;;;;;5014312;28;20032;-72
2022/03/30 07:52:58;;;;;;;12.20;7.13;;;;;;;;;;5012607;28;20044;-72
2022/03/30 07:55:26;;;;;;;17.88;7.85;;;;;;;;;;5012440;28;20034;-71
2022/03/30 07:57:52;;;;;;;16.00;7.43;;;;;;;;;;5012788;28;20041;-72
2022/03/30 08:00:21;;;;;;;22.45;8.30;;;;;;;;;;5012800;28;20113;-72
2022/03/30 08:02:47;;;;;;;14.32;8.27;;;;;;;;;;5012687;28;20036;-73
2022/03/30 08:05:14;;;;;;;15.30;8.10;;;;;;;;;;5012042;28;20413;-73
2022/03/30 08:07:43;;;;;;;15.70;8.05;;;;;;;;;;5012203;28;20075;-73
2022/03/30 08:10:10;;;;;;;15.45;8.93;;;;;;;;;;4994226;28;20050;-73
2022/03/30 08:12:36;;;;;;;16.63;8.85;;;;;;;;;;4994342;28;20393;-72
2022/03/30 08:15:03;;;;;;;16.05;7.82;;;;;;;;;;5012152;28;20050;-69
2022/03/30 08:17:29;;;;;;;14.38;8.35;;;;;;;;;;4995780;28;20050;-75
2022/03/30 08:19:57;;;;;;;14.15;7.80;;;;;;;;;;4998319;28;20022;-73
2022/03/30 08:22:26;;;;;;;19.70;8.52;;;;;;;;;;5015694;28;20018;-71
2022/03/30 08:24:53;;;;;;;14.90;8.45;;;;;;;;;;5034091;28;20087;-74
2022/03/30 08:27:20;;;;;;;14.10;8.63;;;;;;;;;;5037589;28;20060;-72
2022/03/30 08:29:46;;;;;;;18.10;9.18;;;;;;;;;;5037537;28;20028;-73
2022/03/30 08:32:13;;;;;;;17.17;8.57;;;;;;;;;;5055014;28;20032;-71
2022/03/30 08:34:40;;;;;;;16.35;9.27;;;;;;;;;;5055489;28;20033;-72
2022/03/30 08:37:06;;;;;;;17.70;9.73;;;;;;;;;;5054870;28;20116;-71
2022/03/30 08:39:33;;;;;;;16.02;9.27;;;;;;;;;;5054906;28;20032;-71
2022/03/30 08:42:01;;;;;;;19.20;9.23;;;;;;;;;;5054500;28;20029;-67
2022/03/30 08:44:27;;;;;;;16.05;8.73;;;;;;;;;;5054672;28;20373;-69
2022/03/30 08:46:53;;;;;;;23.08;9.52;;;;;;;;;;5046502;28;20034;-69
2022/03/30 08:49:20;;;;;;;35.15;9.65;;;;;;;;;;5016215;28;20432;-69
2022/03/30 08:51:47;;;;;;;26.17;8.40;;;;;;;;;;5015931;28;20111;-68
2022/03/30 08:54:13;;;;;;;24.90;8.13;;;;;;;;;;5033731;28;20207;-69
2022/03/30 08:56:40;;;;;;;39.33;8.82;;;;;;;;;;5033367;28;20093;-67
2022/03/30 08:59:06;;;;;;;21.25;8.10;;;;;;;;;;5033584;28;20029;-67
2022/03/30 09:01:33;;;;;;;15.10;7.15;;;;;;;;;;5033502;28;20029;-67
2022/03/30 09:04:00;;;;;;;16.48;7.53;;;;;;;;;;5033597;28;20621;-71
2022/03/30 09:06:45;;;;;;;14.93;7.47;;;;;;;;;;5033556;28;20104;-68
2022/03/30 09:09:11;;;;;;;18.75;6.88;;;;;;;;;;5033432;28;20567;-68
2022/03/30 09:11:40;;;;;;;20.42;7.68;;;;;;;;;;5032989;28;20041;-69
2022/03/30 09:14:07;;;;;;;16.98;6.82;;;;;;;;;;5033450;28;20046;-68
2022/03/30 09:16:39;;;;;;;14.77;6.72;;;;;;;;;;5033399;28;20025;-67
2022/03/30 09:27:24;;;;;;;15.25;6.72;;;;;;;;;;5132479;27;20336;-67
2022/03/30 09:29:50;;;;;;;16.23;6.45;;;;;;;;;;5149296;27;20478;-67
2022/03/30 09:32:16;;;;;;;12.15;5.90;;;;;;;;;;5149341;27;20023;-66
2022/03/30 09:34:50;;;;;;;26.33;6.53;;;;;;;;;;5130753;27;20030;-66
2022/03/30 09:37:16;;;;;;;17.92;5.50;;;;;;;;;;5149030;27;20027;-66
2022/03/30 09:39:43;;;;;;;17.42;4.93;;;;;;;;;;5149286;27;20054;-65
2022/03/30 09:42:10;;;;;;;22.92;5.65;;;;;;;;;;5148448;27;20019;-66
2022/03/30 09:44:47;;;;;;;9.98;5.10;;;;;;;;;;5148933;27;20466;-65
2022/03/30 09:47:13;;;;;;;8.38;5.13;;;;;;;;;;5149137;27;20039;-66
2022/03/30 09:49:47;;;;;;;8.00;5.10;;;;;;;;;;5145819;27;20106;-68
2022/03/30 09:52:13;;;;;;;10.20;5.00;;;;;;;;;;5127748;28;20154;-66
2022/03/30 09:54:42;;;;;;;10.50;4.68;;;;;;;;;;5128038;28;20098;-68
2022/03/30 09:57:16;;;;;;;8.57;4.70;;;;;;;;;;5128098;28;20019;-64
2022/03/30 10:00:20;;;;;;;6.95;4.43;;;;;;;;;;5127983;28;20035;-66
2022/03/30 10:02:47;;;;;;;5.78;4.40;;;;;;;;;;5024368;28;20049;-65
2022/03/30 10:05:15;;;;;;;10.60;4.47;;;;;;;;;;5024687;28;20034;-64
2022/03/30 10:07:41;;;;;;;9.32;5.05;;;;;;;;;;5074594;28;20037;-67
2022/03/30 10:10:08;;;;;;;11.27;5.03;;;;;;;;;;5128145;27;20102;-68
2022/03/30 10:12:35;;;;;;;7.13;4.38;;;;;;;;;;5117946;28;20020;-66
2022/03/30 10:15:01;;;;;;;6.07;4.57;;;;;;;;;;5138080;27;20026;-69
2022/03/30 10:17:31;;;;;;;7.75;4.47;;;;;;;;;;5137185;27;20015;-68
2022/03/30 10:19:58;;;;;;;6.25;4.28;;;;;;;;;;5118662;27;20507;-68
2022/03/30 10:22:43;;;;;;;6.35;4.57;;;;;;;;;;5120994;27;20027;-67
2022/03/30 10:25:09;;;;;;;7.57;4.35;;;;;;;;;;5135197;27;20012;-69
2022/03/30 10:27:54;;;;;;;5.15;4.32;;;;;;;;;;5138958;27;20458;-67
2022/03/30 10:30:30;;;;;;;6.55;4.03;;;;;;;;;;5137238;27;20090;-69
2022/03/30 10:32:58;;;;;;;5.85;4.22;;;;;;;;;;5117827;27;20027;-69
2022/03/30 10:35:37;;;;;;;4.88;3.85;;;;;;;;;;5137326;27;20054;-67
2022/03/30 10:38:03;;;;;;;5.45;3.78;;;;;;;;;;5127503;27;20027;-66
2022/03/30 10:40:29;;;;;;;6.40;4.50;;;;;;;;;;5116000;27;20075;-67
2022/03/30 10:42:57;;;;;;;5.68;3.70;;;;;;;;;;5134010;27;20027;-66
2022/03/30 10:45:30;;;;;;;6.38;4.40;;;;;;;;;;5133985;27;20031;-64
2022/03/30 10:48:33;;;;;;;4.97;3.83;;;;;;;;;;5117400;27;20123;-66
2022/03/30 10:50:59;;;;;;;5.47;3.88;;;;;;;;;;5043742;28;20040;-67
2022/03/30 10:53:31;;;;;;;5.80;4.18;;;;;;;;;;5101667;28;20123;-66
2022/03/30 10:56:10;;;;;;;5.43;4.28;;;;;;;;;;5113305;28;20046;-65
2022/03/30 10:58:36;;;;;;;4.00;3.50;;;;;;;;;;5113077;28;20015;-69
2022/03/30 11:01:13;;;;;;;4.00;3.60;;;;;;;;;;5112771;28;20042;-65
2022/03/30 11:03:56;;;;;;;4.32;3.75;;;;;;;;;;5113113;28;20055;-67
2022/03/30 11:06:22;;;;;;;5.03;3.90;;;;;;;;;;5113133;28;20028;-66
2022/03/30 11:08:55;;;;;;;6.10;3.80;;;;;;;;;;5094623;28;20031;-68
2022/03/30 11:11:25;;;;;;;4.25;3.40;;;;;;;;;;5094417;28;20402;-68
2022/03/30 11:14:10;;;;;;;6.75;4.15;;;;;;;;;;5112811;28;20026;-68
2022/03/30 11:16:48;;;;;;;4.20;3.45;;;;;;;;;;5112852;28;20023;-68
2022/03/30 11:19:14;;;;;;;5.18;3.33;;;;;;;;;;5095047;28;20024;-66
2022/03/30 11:21:40;;;;;;;5.10;3.65;;;;;;;;;;5112700;28;20352;-66
2022/03/30 11:24:10;;;;;;;6.80;3.65;;;;;;;;;;5094273;28;20027;-66
2022/03/30 11:26:49;;;;;;;5.13;3.58;;;;;;;;;;5112597;28;20043;-65
2022/03/30 11:29:33;;;;;;;4.72;3.50;;;;;;;;;;5112442;28;20455;-68
2022/03/30 11:32:00;;;;;;;3.97;3.30;;;;;;;;;;5112192;28;20055;-66
2022/03/30 11:34:32;;;;;;;6.00;3.42;;;;;;;;;;5103231;27;20049;-67
2022/03/30 11:36:58;;;;;;;;;;;;;;;;;;5112920;28;20022;-65
2022/03/30 11:39:32;;;;;;;6.35;3.53;;;;;;;;;;5112417;28;19903;-68
2022/03/30 11:41:59;;;;;;;4.05;3.55;;;;;;;;;;5112163;28;20466;-65
2022/03/30 11:47:13;;;;;;;4.28;3.55;;;;;;;;;;5122514;27;20192;-67
2022/03/30 11:49:56;;;;;;;4.97;3.85;;;;;;;;;;5134451;27;20423;-67
2022/03/30 11:52:22;;;;;;;8.02;3.70;;;;;;;;;;5153171;27;20102;-67
2022/03/30 11:54:49;;;;;;;5.43;3.80;;;;;;;;;;5153419;27;20462;-67
2022/03/30 11:57:16;;;;;;;6.05;3.75;;;;;;;;;;5153455;27;20019;-66
2022/03/30 11:59:42;;;;;;;6.95;3.55;;;;;;;;;;5153626;27;20075;-65
2022/03/30 12:02:08;;;;;;;3.92;3.53;;;;;;;;;;5153340;27;20362;-66
2022/03/30 12:04:35;;;;;;;6.47;3.70;;;;;;;;;;5153654;27;20630;-64
2022/03/30 12:07:01;;;;;;;4.32;3.45;;;;;;;;;;5153300;27;20031;-67
2022/03/30 12:09:27;;;;;;;3.70;3.35;;;;;;;;;;5134504;27;20138;-65
2022/03/30 12:11:54;;;;;;;4.88;3.90;;;;;;;;;;5153151;27;20222;-67
2022/03/30 12:14:24;;;;;;;6.63;3.60;;;;;;;;;;5153244;27;20027;-65
2022/03/30 12:16:50;;;;;;;4.50;3.60;;;;;;;;;;5152909;27;20387;-67
2022/03/30 12:19:17;;;;;;;3.78;3.42;;;;;;;;;;5153100;27;20524;-68
2022/03/30 12:21:43;;;;;;;4.28;3.40;;;;;;;;;;5153020;27;20058;-68
2022/03/30 12:24:16;;;;;;;4.38;3.70;;;;;;;;;;5149350;27;20366;-67
2022/03/30 12:26:42;;;;;;;3.88;3.28;;;;;;;;;;5126458;27;20043;-67
2022/03/30 12:29:09;;;;;;;3.45;3.15;;;;;;;;;;5123385;27;20031;-67
2022/03/30 12:31:47;;;;;;;4.90;3.55;;;;;;;;;;5132169;27;20034;-67
2022/03/30 12:34:14;;;;;;;5.13;3.13;;;;;;;;;;5113777;27;20430;-67
2022/03/30 12:36:41;;;;;;;4.53;3.47;;;;;;;;;;5113827;27;20031;-67
2022/03/30 12:39:22;;;;;;;4.05;3.60;;;;;;;;;;5131599;27;20370;-68
2022/03/30 12:41:56;;;;;;;4.63;3.22;;;;;;;;;;5131555;27;20023;-67
2022/03/30 12:44:22;;;;;;;4.15;3.42;;;;;;;;;;5131745;27;20019;-67
2022/03/30 12:46:51;;;;;;;3.47;3.17;;;;;;;;;;5126627;27;20054;-66
2022/03/30 12:49:17;;;;;;;4.28;3.63;;;;;;;;;;5124145;27;20473;-66
2022/03/30 12:51:43;;;;;;;4.63;3.38;;;;;;;;;;5124898;27;20024;-67
2022/03/30 12:54:22;;;;;;;4.20;3.53;;;;;;;;;;5123059;27;20382;-65
2022/03/30 12:56:48;;;;;;;4.60;3.40;;;;;;;;;;5121393;27;20030;-66
2022/03/30 12:59:19;;;;;;;3.92;3.17;;;;;;;;;;5121906;27;20118;-65
2022/03/30 13:01:49;;;;;;;4.50;3.70;;;;;;;;;;5121129;27;20458;-68
2022/03/30 13:04:28;;;;;;;4.28;3.47;;;;;;;;;;5122223;27;20027;-67
2022/03/30 13:07:13;;;;;;;4.88;3.63;;;;;;;;;;5123478;27;20391;-68
2022/03/30 13:10:00;;;;;;;4.82;3.60;;;;;;;;;;5121046;27;20015;-68
2022/03/30 13:12:43;;;;;;;4.22;3.30;;;;;;;;;;5099447;27;20042;-67
2022/03/30 13:15:12;;;;;;;3.95;3.55;;;;;;;;;;5117844;27;20049;-67
2022/03/30 13:18:13;;;;;;;5.30;3.60;;;;;;;;;;5122203;27;20026;-68
2022/03/30 13:20:41;;;;;;;4.60;3.50;;;;;;;;;;5028487;28;20682;-68
2022/03/30 13:23:10;;;;;;;3.80;3.40;;;;;;;;;;5095061;28;20034;-68
2022/03/30 13:25:43;;;;;;;4.95;3.42;;;;;;;;;;5117122;28;20040;-67
2022/03/30 13:28:21;;;;;;;3.72;3.25;;;;;;;;;;5119871;28;20096;-65
2022/03/30 13:30:46;;;;;;;7.22;3.50;;;;;;;;;;5120856;28;20019;-65
2022/03/30 13:33:12;;;;;;;3.45;3.10;;;;;;;;;;5120118;28;20034;-64
2022/03/30 13:35:38;;;;;;;4.07;3.38;;;;;;;;;;5119211;28;20051;-69
2022/03/30 13:38:14;;;;;;;5.68;3.50;;;;;;;;;;5122194;28;20638;-68
2022/03/30 13:40:40;;;;;;;3.88;3.35;;;;;;;;;;5120967;28;20016;-68
2022/03/30 13:43:06;;;;;;;4.38;3.05;;;;;;;;;;5100611;28;20024;-67
2022/03/30 13:45:32;;;;;;;4.65;3.20;;;;;;;;;;5120759;28;20039;-66
2022/03/30 13:47:59;;;;;;;4.10;2.95;;;;;;;;;;5101470;28;20115;-64
2022/03/30 13:50:26;;;;;;;3.95;3.22;;;;;;;;;;5121555;28;20020;-66
2022/03/30 13:52:52;;;;;;;4.85;3.42;;;;;;;;;;5119139;28;20031;-67
2022/03/30 13:55:20;;;;;;;3.63;3.30;;;;;;;;;;5120012;28;20042;-66
2022/03/30 13:57:46;;;;;;;4.65;3.03;;;;;;;;;;5123818;28;20363;-67
2022/03/30 14:00:12;;;;;;;3.55;3.00;;;;;;;;;;5117542;28;20459;-68
2022/03/30 14:02:38;;;;;;;3.38;3.08;;;;;;;;;;5112622;28;20101;-68
2022/03/30 14:05:04;;;;;;;3.35;3.05;;;;;;;;;;5131094;27;20112;-67
2022/03/30 14:07:30;;;;;;;4.07;3.00;;;;;;;;;;5130816;28;20078;-67
2022/03/30 14:09:56;;;;;;;3.55;3.20;;;;;;;;;;5130811;28;20114;-67
2022/03/30 14:12:23;;;;;;;3.20;2.90;;;;;;;;;;5112634;27;20081;-67
2022/03/30 14:14:49;;;;;;;4.28;3.20;;;;;;;;;;5134501;27;20024;-65
2022/03/30 14:17:15;;;;;;;3.17;2.85;;;;;;;;;;5116181;27;20110;-68
2022/03/30 14:19:42;;;;;;;3.30;2.97;;;;;;;;;;5134526;27;20115;-66
2022/03/30 14:22:08;;;;;;;3.35;2.85;;;;;;;;;;5134444;27;20015;-65
2022/03/30 14:24:34;;;;;;;3.95;3.08;;;;;;;;;;5127805;27;20028;-64
2022/03/30 14:27:00;;;;;;;3.42;3.00;;;;;;;;;;5119165;27;20035;-64
2022/03/30 14:29:27;;;;;;;3.22;2.70;;;;;;;;;;5122508;27;20024;-66
2022/03/30 14:31:54;;;;;;;5.05;2.72;;;;;;;;;;5113394;28;20398;-66
2022/03/30 14:34:20;;;;;;;4.15;2.60;;;;;;;;;;5095364;28;20058;-64
2022/03/30 14:36:47;;;;;;;5.70;2.80;;;;;;;;;;5113834;28;20023;-66
2022/03/30 14:39:13;;;;;;;3.92;2.65;;;;;;;;;;5113719;28;20023;-65
2022/03/30 14:41:39;;;;;;;7.22;2.90;;;;;;;;;;5113475;28;20039;-65
2022/03/30 14:44:06;;;;;;;3.58;2.63;;;;;;;;;;5113501;28;20064;-64
2022/03/30 14:46:32;;;;;;;3.47;2.67;;;;;;;;;;5113625;28;20109;-64
2022/03/30 14:48:58;;;;;;;5.70;2.85;;;;;;;;;;5113600;28;20098;-64
2022/03/30 14:51:25;;;;;;;3.65;2.70;;;;;;;;;;5095249;28;20028;-66
2022/03/30 14:53:51;;;;;;;2.83;2.40;;;;;;;;;;5113953;28;20024;-69
2022/03/30 14:56:17;;;;;;;3.60;2.58;;;;;;;;;;5113557;28;20036;-65
2022/03/30 14:58:43;;;;;;;4.13;2.90;;;;;;;;;;5113385;28;20031;-65